Time;durP1;ratioP1;P1;durP2;ratioP2;P2;SDS_P1;SDS_P2;PMS_P1;PMS_P2;Temp;Humidity;BMP_temperature;BMP_pressure;BME280_temperature;BME280_humidity;BME280_pressure;Samples;Min_cycle;Max_cycle;Signal;HPM_P1;HPM_P2
2023/10/24 00:00:55;;;;;;;;;;;;;;;;;;4966636;28;19931;-82
2023/10/24 00:03:21;;;;;;;;;;;;;;;;;;5010958;28;19922;-82
2023/10/24 00:05:48;;;;;;;;;;;;;;;;;;5009087;28;19926;-82
2023/10/24 00:08:13;;;;;;;;;;;;;;;;;;5005305;28;20451;-82
2023/10/24 00:10:39;;;;;;;;;;;;;;;;;;4978752;28;19957;-81
2023/10/24 00:13:05;;;;;;;;;;;;;;;;;;5008726;28;19929;-81
2023/10/24 00:15:31;;;;;;;;;;;;;;;;;;4972243;28;19921;-81
2023/10/24 00:17:57;;;;;;;;;;;;;;;;;;5007186;28;19930;-81
2023/10/24 00:20:23;;;;;;;;;;;;;;;;;;5004999;28;19976;-82
2023/10/24 00:22:49;;;;;;;;;;;;;;;;;;5008843;28;19929;-82
2023/10/24 00:25:15;;;;;;;;;;;;;;;;;;4990101;28;19930;-81
2023/10/24 00:27:41;;;;;;;;;;;;;;;;;;4975251;28;20013;-81
2023/10/24 00:30:07;;;;;;;;;;;;;;;;;;5003140;28;20383;-82
2023/10/24 00:32:33;;;;;;;;;;;;;;;;;;4978548;28;20036;-81
2023/10/24 00:34:58;;;;;;;;;;;;;;;;;;5012960;28;20016;-81
2023/10/24 00:37:24;;;;;;;;;;;;;;;;;;4967672;28;20013;-82
2023/10/24 00:39:50;;;;;;;;;;;;;;;;;;4980112;28;20020;-81
2023/10/24 00:42:16;;;;;;;;;;;;;;;;;;4982566;28;20013;-81
2023/10/24 00:44:42;;;;;;;;;;;;;;;;;;4976404;28;19922;-81
2023/10/24 00:47:08;;;;;;;;;;;;;;;;;;5005165;28;19922;-81
2023/10/24 00:49:34;;;;;;;;;;;;;;;;;;5012042;28;20405;-81
2023/10/24 00:52:00;;;;;;;;;;;;;;;;;;5011754;28;19922;-82
2023/10/24 00:54:26;;;;;;;;;;;;;;;;;;5007363;28;19939;-82
2023/10/24 00:56:52;;;;;;;;;;;;;;;;;;5001478;28;19964;-81
2023/10/24 00:59:18;;;;;;;;;;;;;;;;;;4966088;28;19925;-81
2023/10/24 01:01:44;;;;;;;;;;;;;;;;;;5013260;28;20061;-81
2023/10/24 01:04:09;;;;;;;;;;;;;;;;;;5011414;28;20012;-82
2023/10/24 01:06:35;;;;;;;;;;;;;;;;;;4979961;28;20355;-82
2023/10/24 01:09:01;;;;;;;;;;;;;;;;;;4975851;28;20016;-81
2023/10/24 01:11:27;;;;;;;;;;;;;;;;;;4974419;28;20005;-81
2023/10/24 01:13:53;;;;;;;;;;;;;;;;;;5006232;28;19969;-81
2023/10/24 01:16:20;;;;;;;;;;;;;;;;;;4975453;28;19965;-82
2023/10/24 01:18:46;;;;;;;;;;;;;;;;;;4969540;28;19930;-82
2023/10/24 01:21:12;;;;;;;;;;;;;;;;;;4972450;28;19922;-81
2023/10/24 01:23:38;;;;;;;;;;;;;;;;;;4988900;28;20013;-82
2023/10/24 01:26:04;;;;;;;;;;;;;;;;;;4969408;28;20392;-81
2023/10/24 01:28:30;;;;;;;;;;;;;;;;;;4973022;28;20004;-81
2023/10/24 01:30:56;;;;;;;;;;;;;;;;;;4989222;28;20077;-82
2023/10/24 01:33:22;;;;;;;;;;;;;;;;;;4983183;28;19922;-81
2023/10/24 01:35:48;;;;;;;;;;;;;;;;;;4976674;28;20330;-81
2023/10/24 01:38:14;;;;;;;;;;;;;;;;;;4979592;28;20380;-81
2023/10/24 01:40:40;;;;;;;;;;;;;;;;;;4978815;28;19926;-81
2023/10/24 01:43:06;;;;;;;;;;;;;;;;;;4980843;28;19926;-81
2023/10/24 01:45:32;;;;;;;;;;;;;;;;;;4983827;28;19921;-81
2023/10/24 01:47:58;;;;;;;;;;;;;;;;;;5009085;28;19932;-81
2023/10/24 01:50:24;;;;;;;;;;;;;;;;;;4972743;28;19930;-81
2023/10/24 01:52:50;;;;;;;;;;;;;;;;;;5000289;28;19969;-82
2023/10/24 01:55:16;;;;;;;;;;;;;;;;;;4972138;28;19925;-81
2023/10/24 01:57:42;;;;;;;;;;;;;;;;;;4982756;28;19922;-81
2023/10/24 02:00:08;;;;;;;;;;;;;;;;;;5013478;28;19922;-82
2023/10/24 02:02:34;;;;;;;;;;;;;;;;;;4978310;28;20265;-81
2023/10/24 02:05:02;;;;;;;;;;;;;;;;;;5004966;28;19926;-82
2023/10/24 02:07:28;;;;;;;;;;;;;;;;;;5003818;28;19949;-81
2023/10/24 02:09:54;;;;;;;;;;;;;;;;;;4959705;28;20282;-81
2023/10/24 02:12:20;;;;;;;;;;;;;;;;;;4967898;28;19941;-81
2023/10/24 02:14:46;;;;;;;;;;;;;;;;;;4978750;28;19976;-81
2023/10/24 02:17:12;;;;;;;;;;;;;;;;;;4969924;28;20330;-81
2023/10/24 02:19:38;;;;;;;;;;;;;;;;;;4973048;28;20275;-82
2023/10/24 02:22:04;;;;;;;;;;;;;;;;;;4969830;28;19928;-82
2023/10/24 02:24:30;;;;;;;;;;;;;;;;;;4972577;28;19922;-81
2023/10/24 02:26:56;;;;;;;;;;;;;;;;;;4970173;28;20342;-81
2023/10/24 02:29:22;;;;;;;;;;;;;;;;;;4966695;28;19922;-82
2023/10/24 02:31:48;;;;;;;;;;;;;;;;;;4971014;28;19976;-81
2023/10/24 02:34:14;;;;;;;;;;;;;;;;;;4972951;28;19922;-81
2023/10/24 02:36:40;;;;;;;;;;;;;;;;;;4969146;28;19922;-81
2023/10/24 02:39:06;;;;;;;;;;;;;;;;;;4974637;28;20000;-81
2023/10/24 02:41:31;;;;;;;;;;;;;;;;;;4976541;28;19922;-81
2023/10/24 02:44:00;;;;;;;;;;;;;;;;;;4970633;28;19921;-82
2023/10/24 02:46:26;;;;;;;;;;;;;;;;;;5008566;28;19937;-81
2023/10/24 02:48:52;;;;;;;;;;;;;;;;;;5005796;28;19922;-81
2023/10/24 02:51:20;;;;;;;;;;;;;;;;;;5002822;28;19921;-81
2023/10/24 02:53:52;;;;;;;;;;;;;;;;;;4979895;28;19961;-81
2023/10/24 02:56:18;;;;;;;;;;;;;;;;;;5013491;28;19922;-82
2023/10/24 02:58:44;;;;;;;;;;;;;;;;;;5018126;28;19967;-82
2023/10/24 03:01:10;;;;;;;;;;;;;;;;;;4976716;28;20366;-82
2023/10/24 03:03:36;;;;;;;;;;;;;;;;;;5009553;28;19933;-82
2023/10/24 03:06:02;;;;;;;;;;;;;;;;;;4970568;28;19926;-81
2023/10/24 03:08:28;;;;;;;;;;;;;;;;;;4966852;28;20013;-81
2023/10/24 03:10:54;;;;;;;;;;;;;;;;;;4981017;28;19922;-81
2023/10/24 03:13:20;;;;;;;;;;;;;;;;;;5012781;28;19929;-81
2023/10/24 03:15:46;;;;;;;;;;;;;;;;;;5006805;28;20386;-82
2023/10/24 03:18:11;;;;;;;;;;;;;;;;;;4986558;28;20107;-81
2023/10/24 03:20:37;;;;;;;;;;;;;;;;;;4978941;28;20000;-81
2023/10/24 03:23:03;;;;;;;;;;;;;;;;;;5006997;28;20001;-82
2023/10/24 03:25:29;;;;;;;;;;;;;;;;;;4980343;28;19948;-82
2023/10/24 03:27:55;;;;;;;;;;;;;;;;;;5005624;28;20353;-82
2023/10/24 03:30:21;;;;;;;;;;;;;;;;;;5005023;28;20009;-82
2023/10/24 03:32:47;;;;;;;;;;;;;;;;;;4973887;28;20008;-81
2023/10/24 03:35:13;;;;;;;;;;;;;;;;;;4972587;28;20016;-81
2023/10/24 03:37:39;;;;;;;;;;;;;;;;;;4974878;28;19922;-82
2023/10/24 03:40:05;;;;;;;;;;;;;;;;;;4974608;28;19922;-82
2023/10/24 03:42:31;;;;;;;;;;;;;;;;;;4974483;28;20287;-81
2023/10/24 03:44:57;;;;;;;;;;;;;;;;;;4973182;28;19937;-82
2023/10/24 03:47:23;;;;;;;;;;;;;;;;;;5007097;28;19933;-82
2023/10/24 03:49:48;;;;;;;;;;;;;;;;;;5009410;28;21608;-82
2023/10/24 03:52:14;;;;;;;;;;;;;;;;;;5010006;28;20295;-82
2023/10/24 03:54:40;;;;;;;;;;;;;;;;;;4975154;28;20408;-82
2023/10/24 03:57:06;;;;;;;;;;;;;;;;;;4972768;28;20286;-82
2023/10/24 03:59:50;;;;;;;;;;;;;;;;;;4980306;28;19965;-82
2023/10/24 04:02:16;;;;;;;;;;;;;;;;;;4977042;28;20342;-82
2023/10/24 04:04:42;;;;;;;;;;;;;;;;;;4980513;28;20012;-82
2023/10/24 04:07:08;;;;;;;;;;;;;;;;;;5008143;28;19937;-82
2023/10/24 04:09:34;;;;;;;;;;;;;;;;;;4986076;28;19918;-82
2023/10/24 04:12:00;;;;;;;;;;;;;;;;;;5015576;28;19922;-82
2023/10/24 04:14:26;;;;;;;;;;;;;;;;;;5010819;28;19953;-82
2023/10/24 04:16:52;;;;;;;;;;;;;;;;;;4999886;28;20362;-82
2023/10/24 04:19:18;;;;;;;;;;;;;;;;;;5008465;28;19918;-82
2023/10/24 04:21:45;;;;;;;;;;;;;;;;;;4977103;28;19960;-82
2023/10/24 04:24:11;;;;;;;;;;;;;;;;;;5007012;28;19945;-82
2023/10/24 04:26:36;;;;;;;;;;;;;;;;;;4987601;28;20386;-81
2023/10/24 04:29:02;;;;;;;;;;;;;;;;;;4982779;28;19922;-81
2023/10/24 04:31:28;;;;;;;;;;;;;;;;;;4973665;28;19926;-81
2023/10/24 04:33:54;;;;;;;;;;;;;;;;;;5000374;28;19922;-81
2023/10/24 04:36:20;;;;;;;;;;;;;;;;;;4997770;28;20402;-81
2023/10/24 04:38:46;;;;;;;;;;;;;;;;;;4964458;28;19925;-81
2023/10/24 04:41:12;;;;;;;;;;;;;;;;;;4962723;28;19922;-81
2023/10/24 04:43:38;;;;;;;;;;;;;;;;;;4964344;28;19929;-81
2023/10/24 04:46:04;;;;;;;;;;;;;;;;;;4994763;28;19930;-82
2023/10/24 04:48:30;;;;;;;;;;;;;;;;;;4998049;28;19926;-82
2023/10/24 04:50:56;;;;;;;;;;;;;;;;;;4991964;28;19932;-82
2023/10/24 04:53:22;;;;;;;;;;;;;;;;;;4995312;28;20337;-82
2023/10/24 04:55:48;;;;;;;;;;;;;;;;;;4963467;28;20414;-82
2023/10/24 04:58:14;;;;;;;;;;;;;;;;;;4962628;28;20589;-82
2023/10/24 05:00:40;;;;;;;;;;;;;;;;;;4963795;28;20282;-82
2023/10/24 05:03:06;;;;;;;;;;;;;;;;;;5006564;28;20271;-83
2023/10/24 05:05:32;;;;;;;;;;;;;;;;;;4990576;28;19929;-82
2023/10/24 05:07:58;;;;;;;;;;;;;;;;;;4979417;28;19921;-82
2023/10/24 05:10:24;;;;;;;;;;;;;;;;;;5001891;28;19922;-82
2023/10/24 05:12:50;;;;;;;;;;;;;;;;;;5007700;28;19922;-82
2023/10/24 05:15:19;;;;;;;;;;;;;;;;;;5002928;28;20002;-82
2023/10/24 05:17:44;;;;;;;;;;;;;;;;;;4975651;28;20073;-82
2023/10/24 05:20:12;;;;;;;;;;;;;;;;;;4974611;28;20008;-82
2023/10/24 05:22:38;;;;;;;;;;;;;;;;;;4959740;28;20389;-81
2023/10/24 05:25:04;;;;;;;;;;;;;;;;;;4978177;28;19921;-82
2023/10/24 05:27:31;;;;;;;;;;;;;;;;;;4971043;28;19928;-82
2023/10/24 05:29:57;;;;;;;;;;;;;;;;;;4971655;28;19926;-81
2023/10/24 05:32:23;;;;;;;;;;;;;;;;;;4994336;28;19944;-81
2023/10/24 05:34:49;;;;;;;;;;;;;;;;;;4994835;28;20021;-81
2023/10/24 05:37:15;;;;;;;;;;;;;;;;;;4967912;28;20400;-81
2023/10/24 05:39:41;;;;;;;;;;;;;;;;;;4972191;28;19969;-82
2023/10/24 05:42:07;;;;;;;;;;;;;;;;;;4968386;28;19966;-81
2023/10/24 05:44:39;;;;;;;;;;;;;;;;;;4997594;28;19937;-82
2023/10/24 05:47:05;;;;;;;;;;;;;;;;;;4994705;28;19923;-82
2023/10/24 05:49:32;;;;;;;;;;;;;;;;;;4973326;28;19922;-82
2023/10/24 05:51:57;;;;;;;;;;;;;;;;;;5000096;28;19967;-82
2023/10/24 05:54:23;;;;;;;;;;;;;;;;;;5003145;28;19922;-82
2023/10/24 05:56:49;;;;;;;;;;;;;;;;;;4969405;28;20275;-82
2023/10/24 05:59:15;;;;;;;;;;;;;;;;;;5004769;28;19949;-82
2023/10/24 06:01:41;;;;;;;;;;;;;;;;;;4970521;28;19929;-82
2023/10/24 06:04:07;;;;;;;;;;;;;;;;;;5000485;28;19926;-83
2023/10/24 06:06:33;;;;;;;;;;;;;;;;;;4971493;28;19926;-81
2023/10/24 06:08:59;;;;;;;;;;;;;;;;;;4971235;28;19933;-82
2023/10/24 06:11:25;;;;;;;;;;;;;;;;;;4969720;28;19921;-82
2023/10/24 06:13:51;;;;;;;;;;;;;;;;;;5009720;28;19922;-82
2023/10/24 06:16:17;;;;;;;;;;;;;;;;;;4971523;28;19926;-82
2023/10/24 06:18:43;;;;;;;;;;;;;;;;;;4976253;28;20327;-82
2023/10/24 06:21:11;;;;;;;;;;;;;;;;;;4968404;28;19921;-82
2023/10/24 06:23:38;;;;;;;;;;;;;;;;;;4993878;28;20014;-82
2023/10/24 06:26:03;;;;;;;;;;;;;;;;;;4968612;28;19922;-82
2023/10/24 06:28:29;;;;;;;;;;;;;;;;;;5008321;28;20295;-82
2023/10/24 06:30:55;;;;;;;;;;;;;;;;;;4973208;28;19928;-82
2023/10/24 06:33:24;;;;;;;;;;;;;;;;;;4975311;28;19922;-81
2023/10/24 06:35:50;;;;;;;;;;;;;;;;;;5005834;28;19929;-82
2023/10/24 06:38:17;;;;;;;;;;;;;;;;;;4978206;28;19926;-82
2023/10/24 06:40:46;;;;;;;;;;;;;;;;;;4970434;28;20350;-82
2023/10/24 06:43:12;;;;;;;;;;;;;;;;;;5003488;28;19926;-82
2023/10/24 06:45:38;;;;;;;;;;;;;;;;;;4971046;28;19922;-82
2023/10/24 06:48:06;;;;;;;;;;;;;;;;;;4971324;28;19926;-82
2023/10/24 06:50:32;;;;;;;;;;;;;;;;;;4973990;28;19922;-83
2023/10/24 06:52:58;;;;;;;;;;;;;;;;;;4970456;28;19977;-81
2023/10/24 06:55:24;;;;;;;;;;;;;;;;;;4964145;28;19922;-82
2023/10/24 06:57:50;;;;;;;;;;;;;;;;;;4970457;28;19972;-83
2023/10/24 07:00:16;;;;;;;;;;;;;;;;;;4966183;28;20175;-83
2023/10/24 07:02:42;;;;;;;;;;;;;;;;;;4965576;28;20381;-84
2023/10/24 07:05:08;;;;;;;;;;;;;;;;;;4971706;28;19969;-83
2023/10/24 07:07:35;;;;;;;;;;;;;;;;;;4975111;28;20355;-83
2023/10/24 07:10:01;;;;;;;;;;;;;;;;;;4970016;28;19925;-83
2023/10/24 07:12:27;;;;;;;;;;;;;;;;;;5000750;28;19926;-82
2023/10/24 07:14:56;;;;;;;;;;;;;;;;;;4964333;28;19978;-82
2023/10/24 07:17:21;;;;;;;;;;;;;;;;;;4974087;28;20278;-81
2023/10/24 07:19:47;;;;;;;;;;;;;;;;;;5009979;28;19922;-83
2023/10/24 07:22:13;;;;;;;;;;;;;;;;;;5003307;28;19926;-82
2023/10/24 07:24:39;;;;;;;;;;;;;;;;;;5001941;28;19933;-82
2023/10/24 07:27:05;;;;;;;;;;;;;;;;;;4970261;28;19922;-82
2023/10/24 07:29:31;;;;;;;;;;;;;;;;;;4968832;28;20263;-83
2023/10/24 07:31:57;;;;;;;;;;;;;;;;;;4969719;28;20362;-83
2023/10/24 07:34:23;;;;;;;;;;;;;;;;;;4996187;28;19930;-83
2023/10/24 07:36:49;;;;;;;;;;;;;;;;;;4970642;28;19929;-82
2023/10/24 07:39:15;;;;;;;;;;;;;;;;;;5005385;28;19972;-76
2023/10/24 07:41:41;;;;;;;;;;;;;;;;;;5005250;28;19968;-82
2023/10/24 07:44:07;;;;;;;;;;;;;;;;;;4982685;28;19922;-82
2023/10/24 07:46:33;;;;;;;;;;;;;;;;;;4970347;28;19922;-82
2023/10/24 07:48:59;;;;;;;;;;;;;;;;;;5003612;28;19926;-82
2023/10/24 07:51:31;;;;;;;;;;;;;;;;;;4969834;28;19929;-85
2023/10/24 07:53:57;;;;;;;;;;;;;;;;;;4980705;28;19925;-84
2023/10/24 07:56:23;;;;;;;;;;;;;;;;;;4983346;28;19981;-87
2023/10/24 07:58:49;;;;;;;;;;;;;;;;;;4988596;28;19967;-86
2023/10/24 08:01:15;;;;;;;;;;;;;;;;;;4977068;28;19925;-85
2023/10/24 08:03:41;;;;;;;;;;;;;;;;;;5006641;28;19929;-83
2023/10/24 08:06:07;;;;;;;;;;;;;;;;;;4964464;28;19937;-84
2023/10/24 08:08:33;;;;;;;;;;;;;;;;;;5000327;28;20275;-83
2023/10/24 08:10:58;;;;;;;;;;;;;;;;;;5003512;28;20393;-83
2023/10/24 08:13:24;;;;;;;;;;;;;;;;;;4970622;28;19926;-86
2023/10/24 08:15:52;;;;;;;;;;;;;;;;;;4978943;28;19917;-85
2023/10/24 08:18:18;;;;;;;;;;;;;;;;;;4990614;28;19922;-84
2023/10/24 08:20:43;;;;;;;;;;;;;;;;;;4965125;28;19969;-83
2023/10/24 08:23:09;;;;;;;;;;;;;;;;;;4990277;28;19921;-83
2023/10/24 08:25:35;;;;;;;;;;;;;;;;;;4976950;28;20319;-83
2023/10/24 08:28:02;;;;;;;;;;;;;;;;;;4969138;28;19932;-80
2023/10/24 08:30:31;;;;;;;;;;;;;;;;;;4969131;28;19932;-83
2023/10/24 08:32:57;;;;;;;;;;;;;;;;;;4995289;28;19921;-83
2023/10/24 08:35:23;;;;;;;;;;;;;;;;;;4966347;28;19928;-84
2023/10/24 08:37:49;;;;;;;;;;;;;;;;;;4969656;28;20371;-83
2023/10/24 08:40:15;;;;;;;;;;;;;;;;;;5000779;28;19926;-83
2023/10/24 08:42:41;;;;;;;;;;;;;;;;;;4971939;28;19949;-83
2023/10/24 08:45:07;;;;;;;;;;;;;;;;;;4970335;28;19922;-83
2023/10/24 08:47:33;;;;;;;;;;;;;;;;;;4969268;28;20299;-80
2023/10/24 08:49:59;;;;;;;;;;;;;;;;;;4969043;28;19929;-83
2023/10/24 08:52:25;;;;;;;;;;;;;;;;;;4992174;28;19922;-81
2023/10/24 08:54:51;;;;;;;;;;;;;;;;;;4972660;28;19922;-80
2023/10/24 08:57:17;;;;;;;;;;;;;;;;;;4967775;28;19977;-81
2023/10/24 08:59:43;;;;;;;;;;;;;;;;;;5002195;28;19926;-81
2023/10/24 09:02:09;;;;;;;;;;;;;;;;;;5001035;28;20271;-81
2023/10/24 09:04:35;;;;;;;;;;;;;;;;;;5003137;28;19971;-81
2023/10/24 09:07:01;;;;;;;;;;;;;;;;;;4969366;28;19980;-81
2023/10/24 09:09:27;;;;;;;;;;;;;;;;;;5001715;28;19925;-81
2023/10/24 09:11:53;;;;;;;;;;;;;;;;;;4965931;28;20344;-80
2023/10/24 09:14:20;;;;;;;;;;;;;;;;;;5000503;28;20374;-80
2023/10/24 09:16:46;;;;;;;;;;;;;;;;;;4967800;28;19968;-81
2023/10/24 09:19:12;;;;;;;;;;;;;;;;;;5001493;28;20021;-81
2023/10/24 09:21:38;;;;;;;;;;;;;;;;;;4971461;28;21253;-81
2023/10/24 09:24:04;;;;;;;;;;;;;;;;;;4970050;28;20326;-81
2023/10/24 09:26:30;;;;;;;;;;;;;;;;;;4999330;28;19941;-81
2023/10/24 09:28:56;;;;;;;;;;;;;;;;;;4967754;28;19977;-81
2023/10/24 09:31:23;;;;;;;;;;;;;;;;;;4963019;28;19929;-81
2023/10/24 09:33:49;;;;;;;;;;;;;;;;;;4970783;28;19982;-81
2023/10/24 09:36:14;;;;;;;;;;;;;;;;;;4967556;28;19961;-81
2023/10/24 09:38:42;;;;;;;;;;;;;;;;;;4999619;28;20065;-79
2023/10/24 09:41:10;;;;;;;;;;;;;;;;;;4968265;28;19966;-81
2023/10/24 09:43:36;;;;;;;;;;;;;;;;;;4972325;28;19928;-80
2023/10/24 09:46:02;;;;;;;;;;;;;;;;;;4966547;28;19922;-82
2023/10/24 09:48:28;;;;;;;;;;;;;;;;;;4965991;28;19952;-81
2023/10/24 09:50:54;;;;;;;;;;;;;;;;;;4967976;28;19937;-81
2023/10/24 09:53:20;;;;;;;;;;;;;;;;;;4967780;28;19928;-81
2023/10/24 09:55:48;;;;;;;;;;;;;;;;;;4965247;28;20461;-81
2023/10/24 09:58:14;;;;;;;;;;;;;;;;;;4969548;28;20359;-76
2023/10/24 10:00:40;;;;;;;;;;;;;;;;;;4978367;28;20000;-77
2023/10/24 10:03:06;;;;;;;;;;;;;;;;;;4986579;28;20029;-77
2023/10/24 10:05:32;;;;;;;;;;;;;;;;;;4970795;28;20015;-77
2023/10/24 10:07:58;;;;;;;;;;;;;;;;;;4998999;28;19925;-77
2023/10/24 10:10:24;;;;;;;;;;;;;;;;;;4970706;28;20449;-77
2023/10/24 10:12:50;;;;;;;;;;;;;;;;;;4965779;28;19922;-77
2023/10/24 10:15:18;;;;;;;;;;;;;;;;;;4972348;28;19977;-77
2023/10/24 10:17:43;;;;;;;;;;;;;;;;;;4964265;28;19922;-77
2023/10/24 10:20:09;;;;;;;;;;;;;;;;;;4998936;28;19936;-77
2023/10/24 10:22:37;;;;;;;;;;;;;;;;;;4967086;28;19970;-77
2023/10/24 10:25:02;;;;;;;;;;;;;;;;;;4967025;28;19974;-77
2023/10/24 10:27:28;;;;;;;;;;;;;;;;;;4999916;28;20341;-77
2023/10/24 10:29:54;;;;;;;;;;;;;;;;;;4965456;28;19926;-77
2023/10/24 10:32:20;;;;;;;;;;;;;;;;;;4998477;28;19922;-77
2023/10/24 10:34:46;;;;;;;;;;;;;;;;;;4968028;28;20385;-76
2023/10/24 10:37:12;;;;;;;;;;;;;;;;;;4967467;28;20398;-76
2023/10/24 10:39:38;;;;;;;;;;;;;;;;;;4998041;28;19926;-76
2023/10/24 10:42:04;;;;;;;;;;;;;;;;;;5000321;28;20025;-76
2023/10/24 10:44:30;;;;;;;;;;;;;;;;;;4967146;28;19930;-76
2023/10/24 10:46:56;;;;;;;;;;;;;;;;;;4967970;28;19977;-76
2023/10/24 10:49:22;;;;;;;;;;;;;;;;;;4998413;28;19976;-76
2023/10/24 10:51:48;;;;;;;;;;;;;;;;;;4969402;28;19922;-76
2023/10/24 10:54:17;;;;;;;;;;;;;;;;;;4999041;28;19929;-76
2023/10/24 10:56:43;;;;;;;;;;;;;;;;;;4965846;28;19929;-76
2023/10/24 10:59:09;;;;;;;;;;;;;;;;;;4970052;28;19922;-76
2023/10/24 11:01:35;;;;;;;;;;;;;;;;;;5000466;28;20286;-76
2023/10/24 11:04:01;;;;;;;;;;;;;;;;;;4963880;28;19926;-78
2023/10/24 11:06:27;;;;;;;;;;;;;;;;;;4962765;28;19926;-77
2023/10/24 11:08:53;;;;;;;;;;;;;;;;;;4970539;28;19922;-76
2023/10/24 11:11:19;;;;;;;;;;;;;;;;;;4998340;28;19922;-77
2023/10/24 11:13:47;;;;;;;;;;;;;;;;;;4965216;28;19926;-76
2023/10/24 11:16:13;;;;;;;;;;;;;;;;;;4998198;28;19941;-76
2023/10/24 11:18:39;;;;;;;;;;;;;;;;;;4971896;28;19926;-77
2023/10/24 11:21:05;;;;;;;;;;;;;;;;;;4971986;28;20298;-77
2023/10/24 11:23:31;;;;;;;;;;;;;;;;;;4966131;28;20392;-76
2023/10/24 11:25:57;;;;;;;;;;;;;;;;;;4973150;28;20041;-75
2023/10/24 11:28:25;;;;;;;;;;;;;;;;;;4967458;28;20009;-76
2023/10/24 11:30:51;;;;;;;;;;;;;;;;;;4971264;28;19930;-76
2023/10/24 11:33:16;;;;;;;;;;;;;;;;;;4971224;28;20010;-76
2023/10/24 11:35:42;;;;;;;;;;;;;;;;;;4973433;28;20385;-76
2023/10/24 11:38:08;;;;;;;;;;;;;;;;;;5003584;28;19922;-76
2023/10/24 11:40:34;;;;;;;;;;;;;;;;;;4972235;28;19977;-76
2023/10/24 11:43:00;;;;;;;;;;;;;;;;;;4969933;28;19930;-76
2023/10/24 11:45:26;;;;;;;;;;;;;;;;;;4966760;28;21214;-76
2023/10/24 11:47:55;;;;;;;;;;;;;;;;;;4971803;28;19949;-76
2023/10/24 11:50:21;;;;;;;;;;;;;;;;;;5003530;28;20012;-77
2023/10/24 11:52:47;;;;;;;;;;;;;;;;;;4969481;28;20024;-76
2023/10/24 11:55:13;;;;;;;;;;;;;;;;;;4972141;28;20368;-76
2023/10/24 11:57:38;;;;;;;;;;;;;;;;;;5005278;28;19929;-76
2023/10/24 12:00:04;;;;;;;;;;;;;;;;;;4970501;28;20012;-77
2023/10/24 12:02:31;;;;;;;;;;;;;;;;;;4969747;28;19922;-77
2023/10/24 12:04:57;;;;;;;;;;;;;;;;;;4971542;28;19922;-77
2023/10/24 12:07:23;;;;;;;;;;;;;;;;;;5002887;28;20009;-76
2023/10/24 12:09:49;;;;;;;;;;;;;;;;;;4972599;28;19928;-77
2023/10/24 12:12:15;;;;;;;;;;;;;;;;;;5002193;28;20020;-76
2023/10/24 12:14:41;;;;;;;;;;;;;;;;;;5001814;28;19933;-76
2023/10/24 12:17:07;;;;;;;;;;;;;;;;;;5002567;28;19922;-76
2023/10/24 12:19:33;;;;;;;;;;;;;;;;;;4997040;28;19929;-77
2023/10/24 12:21:59;;;;;;;;;;;;;;;;;;4971395;28;19918;-77
2023/10/24 12:24:25;;;;;;;;;;;;;;;;;;5003795;28;19933;-77
2023/10/24 12:26:51;;;;;;;;;;;;;;;;;;4971220;28;20298;-76
2023/10/24 12:29:17;;;;;;;;;;;;;;;;;;5003775;28;19930;-77
2023/10/24 12:31:43;;;;;;;;;;;;;;;;;;4988767;28;20053;-76
2023/10/24 12:34:09;;;;;;;;;;;;;;;;;;5002135;28;20400;-76
2023/10/24 12:36:35;;;;;;;;;;;;;;;;;;4969956;28;19922;-76
2023/10/24 12:39:01;;;;;;;;;;;;;;;;;;4999398;28;20060;-76
2023/10/24 12:41:27;;;;;;;;;;;;;;;;;;4969763;28;20393;-76
2023/10/24 12:43:53;;;;;;;;;;;;;;;;;;4972630;28;20370;-76
2023/10/24 12:46:19;;;;;;;;;;;;;;;;;;4966983;28;19922;-77
2023/10/24 12:48:45;;;;;;;;;;;;;;;;;;4971264;28;20064;-76
2023/10/24 12:51:12;;;;;;;;;;;;;;;;;;5001987;28;19965;-76
2023/10/24 12:53:38;;;;;;;;;;;;;;;;;;5003590;28;19922;-76
2023/10/24 12:56:06;;;;;;;;;;;;;;;;;;4968009;28;19945;-77
2023/10/24 12:58:33;;;;;;;;;;;;;;;;;;4967900;28;19925;-76
2023/10/24 13:00:59;;;;;;;;;;;;;;;;;;5002378;28;19972;-76
2023/10/24 13:03:25;;;;;;;;;;;;;;;;;;4969138;28;19922;-77
2023/10/24 13:05:51;;;;;;;;;;;;;;;;;;4971366;28;19926;-76
2023/10/24 13:08:16;;;;;;;;;;;;;;;;;;5002487;28;20345;-76
2023/10/24 13:10:43;;;;;;;;;;;;;;;;;;4986631;28;20413;-76
2023/10/24 13:13:09;;;;;;;;;;;;;;;;;;5004086;28;20312;-77
2023/10/24 13:15:35;;;;;;;;;;;;;;;;;;5001400;28;19926;-76
2023/10/24 13:18:01;;;;;;;;;;;;;;;;;;4995975;28;19922;-76
2023/10/24 13:20:27;;;;;;;;;;;;;;;;;;4968432;28;19922;-75
2023/10/24 13:22:53;;;;;;;;;;;;;;;;;;4990787;28;19928;-75
2023/10/24 13:25:18;;;;;;;;;;;;;;;;;;4954626;28;19922;-76
2023/10/24 13:27:44;;;;;;;;;;;;;;;;;;4960603;28;19926;-76
2023/10/24 13:30:10;;;;;;;;;;;;;;;;;;4968340;28;19934;-76
2023/10/24 13:32:38;;;;;;;;;;;;;;;;;;4990245;28;19968;-76
2023/10/24 13:35:04;;;;;;;;;;;;;;;;;;4985923;28;19921;-76
2023/10/24 13:37:30;;;;;;;;;;;;;;;;;;4971826;28;19922;-76
2023/10/24 13:39:56;;;;;;;;;;;;;;;;;;4968478;28;19933;-76
2023/10/24 13:42:21;;;;;;;;;;;;;;;;;;4964828;28;19922;-75
2023/10/24 13:44:49;;;;;;;;;;;;;;;;;;4961345;28;19973;-75
2023/10/24 13:47:15;;;;;;;;;;;;;;;;;;4962660;28;20339;-77
2023/10/24 13:49:41;;;;;;;;;;;;;;;;;;5001350;28;19921;-76
2023/10/24 13:52:07;;;;;;;;;;;;;;;;;;4968855;28;19930;-76
2023/10/24 13:54:32;;;;;;;;;;;;;;;;;;4974221;28;20275;-76
2023/10/24 13:56:58;;;;;;;;;;;;;;;;;;4975990;28;19930;-76
2023/10/24 13:59:24;;;;;;;;;;;;;;;;;;4971446;28;20374;-76
2023/10/24 14:01:50;;;;;;;;;;;;;;;;;;4974119;28;19921;-76
2023/10/24 14:04:16;;;;;;;;;;;;;;;;;;4972666;28;20392;-76
2023/10/24 14:06:42;;;;;;;;;;;;;;;;;;5002144;28;19929;-76
2023/10/24 14:09:08;;;;;;;;;;;;;;;;;;4994847;28;19938;-76
2023/10/24 14:11:34;;;;;;;;;;;;;;;;;;4969860;28;19929;-76
2023/10/24 14:14:00;;;;;;;;;;;;;;;;;;4981593;28;20007;-76
2023/10/24 14:16:26;;;;;;;;;;;;;;;;;;4990304;28;20396;-75
2023/10/24 14:18:52;;;;;;;;;;;;;;;;;;4977896;28;20017;-76
2023/10/24 14:21:18;;;;;;;;;;;;;;;;;;4971702;28;19992;-75
2023/10/24 14:23:44;;;;;;;;;;;;;;;;;;4972484;28;20398;-77
2023/10/24 14:26:10;;;;;;;;;;;;;;;;;;4958388;28;20033;-77
2023/10/24 14:28:35;;;;;;;;;;;;;;;;;;5004730;28;19965;-76
2023/10/24 14:31:01;;;;;;;;;;;;;;;;;;4973672;28;19969;-76
2023/10/24 14:33:27;;;;;;;;;;;;;;;;;;4966806;28;20361;-75
2023/10/24 14:35:53;;;;;;;;;;;;;;;;;;4971658;28;19929;-76
2023/10/24 14:38:19;;;;;;;;;;;;;;;;;;4994592;28;19965;-76
2023/10/24 14:40:45;;;;;;;;;;;;;;;;;;4966910;28;19922;-77
2023/10/24 14:43:11;;;;;;;;;;;;;;;;;;4967091;28;19922;-77
2023/10/24 14:45:37;;;;;;;;;;;;;;;;;;4968102;28;19953;-77
2023/10/24 14:48:03;;;;;;;;;;;;;;;;;;5004998;28;19992;-77
2023/10/24 14:50:29;;;;;;;;;;;;;;;;;;4972304;28;20365;-77
2023/10/24 14:52:55;;;;;;;;;;;;;;;;;;4971155;28;20373;-78
2023/10/24 14:55:21;;;;;;;;;;;;;;;;;;5001497;28;20403;-77
2023/10/24 14:57:47;;;;;;;;;;;;;;;;;;4969434;28;19961;-77
2023/10/24 15:00:13;;;;;;;;;;;;;;;;;;4970545;28;19966;-75
2023/10/24 15:02:40;;;;;;;;;;;;;;;;;;4960575;28;19937;-75
2023/10/24 15:05:05;;;;;;;;;;;;;;;;;;4970099;28;19930;-75
2023/10/24 15:07:31;;;;;;;;;;;;;;;;;;5001051;28;19922;-75
2023/10/24 15:09:57;;;;;;;;;;;;;;;;;;4975606;28;19932;-77
2023/10/24 15:12:23;;;;;;;;;;;;;;;;;;4997197;28;19930;-75
2023/10/24 15:14:49;;;;;;;;;;;;;;;;;;4980222;28;19922;-76
2023/10/24 15:17:15;;;;;;;;;;;;;;;;;;4988494;28;19925;-75
2023/10/24 15:19:41;;;;;;;;;;;;;;;;;;4981145;28;19942;-79
2023/10/24 15:22:07;;;;;;;;;;;;;;;;;;4999031;28;19927;-82
2023/10/24 15:24:33;;;;;;;;;;;;;;;;;;4977575;28;19922;-80
2023/10/24 15:26:59;;;;;;;;;;;;;;;;;;4971915;28;19926;-80
2023/10/24 15:29:25;;;;;;;;;;;;;;;;;;4969736;28;19933;-78
2023/10/24 15:31:51;;;;;;;;;;;;;;;;;;4973230;28;19922;-77
2023/10/24 15:34:17;;;;;;;;;;;;;;;;;;4973580;28;20344;-76
2023/10/24 15:36:47;;;;;;;;;;;;;;;;;;4971907;28;20008;-77
2023/10/24 15:39:13;;;;;;;;;;;;;;;;;;4971760;28;19922;-77
2023/10/24 15:41:41;;;;;;;;;;;;;;;;;;4972927;28;20279;-77
2023/10/24 15:44:07;;;;;;;;;;;;;;;;;;4972680;28;19998;-76
2023/10/24 15:46:33;;;;;;;;;;;;;;;;;;4972657;28;20016;-77
2023/10/24 15:48:59;;;;;;;;;;;;;;;;;;4974012;28;19966;-77
2023/10/24 15:51:25;;;;;;;;;;;;;;;;;;5005475;28;19922;-77
2023/10/24 15:53:52;;;;;;;;;;;;;;;;;;4975338;28;20362;-76
2023/10/24 15:56:18;;;;;;;;;;;;;;;;;;4967247;28;19922;-76
2023/10/24 15:58:44;;;;;;;;;;;;;;;;;;4972112;28;20390;-77
2023/10/24 16:01:10;;;;;;;;;;;;;;;;;;4968755;28;20016;-76
2023/10/24 16:03:35;;;;;;;;;;;;;;;;;;4972076;28;19922;-76
2023/10/24 16:06:01;;;;;;;;;;;;;;;;;;4972666;28;19926;-76
2023/10/24 16:08:27;;;;;;;;;;;;;;;;;;4973919;28;20008;-76
2023/10/24 16:10:53;;;;;;;;;;;;;;;;;;4974358;28;20366;-77
2023/10/24 16:13:19;;;;;;;;;;;;;;;;;;4967672;28;19926;-77
2023/10/24 16:15:45;;;;;;;;;;;;;;;;;;4974646;28;20294;-76
2023/10/24 16:18:11;;;;;;;;;;;;;;;;;;4974093;28;20314;-77
2023/10/24 16:20:37;;;;;;;;;;;;;;;;;;4972668;28;19928;-76
2023/10/24 16:23:03;;;;;;;;;;;;;;;;;;4963338;28;19973;-76
2023/10/24 16:25:31;;;;;;;;;;;;;;;;;;4970977;28;19926;-79
2023/10/24 16:27:57;;;;;;;;;;;;;;;;;;4983024;28;19929;-78
2023/10/24 16:30:23;;;;;;;;;;;;;;;;;;4970401;28;19929;-77
2023/10/24 16:32:49;;;;;;;;;;;;;;;;;;4972686;28;20322;-79
2023/10/24 16:35:15;;;;;;;;;;;;;;;;;;5007081;28;19928;-77
2023/10/24 16:37:41;;;;;;;;;;;;;;;;;;4974338;28;19928;-76